createdAt,value
2017-12-01T00:02:09.429Z,41.97
2017-12-01T00:04:37.654Z,40.47
2017-12-01T00:07:06.650Z,39.87
2017-12-01T00:09:34.897Z,39.43
2017-12-01T00:12:03.142Z,38.97
2017-12-01T00:14:31.362Z,40.10
2017-12-01T00:17:00.346Z,39.07
2017-12-01T00:19:29.359Z,38.97
2017-12-01T00:21:58.348Z,40.23
2017-12-01T00:24:27.345Z,38.77
2017-12-01T00:26:56.313Z,60.37
2017-12-01T00:29:25.339Z,60.17
2017-12-01T00:31:53.577Z,65.50
2017-12-01T00:34:22.603Z,57.67
2017-12-01T00:36:50.837Z,63.10
2017-12-01T00:39:19.063Z,72.10
2017-12-01T00:41:47.300Z,54.43
2017-12-01T00:44:16.326Z,56.27
2017-12-01T00:46:44.557Z,58.63
2017-12-01T00:49:12.778Z,59.10
2017-12-01T00:51:41.023Z,54.00
2017-12-01T00:54:10.012Z,57.70
2017-12-01T00:56:38.255Z,60.63
2017-12-01T00:59:06.482Z,54.70
2017-12-01T01:01:34.726Z,59.53
2017-12-01T01:04:02.967Z,50.80
2017-12-01T01:06:32.032Z,36.17
2017-12-01T01:09:00.265Z,64.10
2017-12-01T01:11:28.498Z,63.80
2017-12-01T01:13:56.721Z,91.03
2017-12-01T01:16:25.746Z,61.80
2017-12-01T01:18:54.022Z,48.63
2017-12-01T01:21:22.244Z,59.93
2017-12-01T01:23:50.490Z,42.13
2017-12-01T01:26:18.707Z,41.80
2017-12-01T01:28:46.942Z,45.73
2017-12-01T01:31:15.214Z,42.93
2017-12-01T01:33:43.472Z,47.43
2017-12-01T01:36:11.694Z,34.60
2017-12-01T01:38:39.924Z,33.50
2017-12-01T01:41:08.143Z,68.70
2017-12-01T01:43:36.383Z,45.07
2017-12-01T01:46:04.602Z,37.67
2017-12-01T01:48:33.635Z,36.87
2017-12-01T01:51:01.861Z,31.87
2017-12-01T01:53:30.152Z,33.70
2017-12-01T01:55:59.179Z,39.47
2017-12-01T01:58:27.407Z,33.80
2017-12-01T02:00:55.658Z,36.97
2017-12-01T02:03:23.970Z,38.00
2017-12-01T02:05:52.978Z,58.80
2017-12-01T02:08:21.251Z,57.27
2017-12-01T02:10:50.255Z,44.40
2017-12-01T02:13:18.494Z,35.07
2017-12-01T02:15:46.738Z,32.83
2017-12-01T02:18:14.961Z,41.80
2017-12-01T02:20:43.230Z,36.63
2017-12-01T02:23:11.417Z,34.00
2017-12-01T02:25:40.529Z,32.70
2017-12-01T02:28:08.750Z,36.73
2017-12-01T02:30:36.971Z,41.60
2017-12-01T02:33:05.207Z,35.03
2017-12-01T02:35:33.453Z,33.03
2017-12-01T02:38:01.684Z,42.17
2017-12-01T02:40:30.693Z,42.30
2017-12-01T02:42:58.951Z,33.47
2017-12-01T02:45:27.947Z,35.63
2017-12-01T02:47:56.163Z,41.30
2017-12-01T02:50:24.805Z,53.43
2017-12-01T02:52:53.796Z,35.80
2017-12-01T02:55:22.796Z,55.37
2017-12-01T02:57:51.774Z,55.10
2017-12-01T03:00:20.037Z,32.03
2017-12-01T03:02:48.259Z,36.10
2017-12-01T03:05:16.514Z,48.47
2017-12-01T03:07:44.730Z,34.50
2017-12-01T03:10:13.790Z,63.40
2017-12-01T03:12:42.038Z,46.47
2017-12-01T03:15:10.295Z,48.33
2017-12-01T03:17:38.529Z,34.57
2017-12-01T03:20:06.760Z,34.90
2017-12-01T03:22:35.003Z,37.40
2017-12-01T03:25:03.922Z,50.73
2017-12-01T03:27:33.034Z,37.63
2017-12-01T03:30:01.226Z,33.73
2017-12-01T03:32:29.472Z,33.83
2017-12-01T03:34:57.714Z,34.60
2017-12-01T03:37:25.976Z,32.57
2017-12-01T03:39:54.211Z,32.33
2017-12-01T03:42:22.462Z,56.07
2017-12-01T03:44:50.694Z,47.97
2017-12-01T03:47:18.939Z,34.33
2017-12-01T03:49:47.189Z,43.87
2017-12-01T03:52:16.199Z,38.43
2017-12-01T03:54:44.462Z,32.43
2017-12-01T03:57:13.464Z,34.13
2017-12-01T03:59:41.712Z,52.87
2017-12-01T04:02:09.946Z,34.17
2017-12-01T04:04:38.192Z,37.70
2017-12-01T04:07:07.190Z,29.20
2017-12-01T04:09:35.422Z,46.20
2017-12-01T04:12:03.736Z,58.07
2017-12-01T04:14:31.936Z,36.87
2017-12-01T04:17:00.178Z,73.67
2017-12-01T04:19:29.184Z,71.93
2017-12-01T04:21:58.174Z,67.53
2017-12-01T04:24:26.406Z,57.47
2017-12-01T04:26:54.644Z,56.77
2017-12-01T04:29:22.919Z,43.13
2017-12-01T04:31:51.154Z,52.13
2017-12-01T04:34:19.376Z,47.77
2017-12-01T04:36:47.622Z,60.73
2017-12-01T04:39:16.198Z,48.53
2017-12-01T04:41:44.447Z,53.83
2017-12-01T04:44:13.451Z,51.70
2017-12-01T04:46:42.455Z,51.57
2017-12-01T04:49:11.478Z,46.17
2017-12-01T04:51:39.706Z,51.97
2017-12-01T04:54:07.984Z,52.50
2017-12-01T04:56:36.247Z,43.00
2017-12-01T04:59:05.274Z,58.97
2017-12-01T05:01:33.854Z,55.90
2017-12-01T05:04:02.118Z,50.77
2017-12-01T05:06:30.392Z,58.20
2017-12-01T05:08:58.605Z,51.23
2017-12-01T05:11:26.856Z,53.23
2017-12-01T05:13:55.115Z,50.50
2017-12-01T05:16:23.399Z,59.20
2017-12-01T05:18:51.648Z,61.20
2017-12-01T05:21:20.674Z,54.87
2017-12-01T05:23:48.910Z,49.27
2017-12-01T05:26:17.459Z,32.27
2017-12-01T05:28:45.730Z,52.93
2017-12-01T05:31:13.988Z,61.43
2017-12-01T05:33:42.258Z,59.87
2017-12-01T05:36:10.503Z,47.70
2017-12-01T05:38:39.545Z,40.70
2017-12-01T05:41:07.806Z,50.40
2017-12-01T05:43:36.051Z,47.63
2017-12-01T05:46:05.093Z,44.90
2017-12-01T05:48:33.382Z,43.70
2017-12-01T05:51:01.596Z,49.07
2017-12-01T05:53:30.618Z,42.40
2017-12-01T05:55:58.867Z,44.23
2017-12-01T05:58:27.122Z,54.47
2017-12-01T06:00:55.362Z,45.20
2017-12-01T06:03:23.731Z,49.70
2017-12-01T06:05:52.005Z,48.70
2017-12-01T06:08:20.273Z,45.47
2017-12-01T06:10:48.543Z,48.43
2017-12-01T06:13:16.835Z,45.90
2017-12-01T06:15:45.109Z,44.83
2017-12-01T06:18:13.335Z,33.33
2017-12-01T06:20:41.583Z,33.63
2017-12-01T06:23:09.840Z,33.63
2017-12-01T06:25:38.164Z,44.00
2017-12-01T06:28:06.407Z,41.13
2017-12-01T06:30:34.666Z,42.90
2017-12-01T06:33:02.940Z,45.73
2017-12-01T06:35:31.504Z,41.87
2017-12-01T06:37:59.783Z,46.57
2017-12-01T06:40:28.027Z,43.77
2017-12-01T06:42:56.308Z,45.20
2017-12-01T06:45:24.565Z,44.97
2017-12-01T06:47:53.589Z,50.40
2017-12-01T06:50:22.618Z,48.20
2017-12-01T06:52:51.166Z,49.53
2017-12-01T06:55:19.426Z,34.10
2017-12-01T06:57:48.438Z,52.93
2017-12-01T07:00:16.718Z,42.53
2017-12-01T07:02:44.976Z,60.80
2017-12-01T07:05:13.563Z,40.40
2017-12-01T07:07:42.661Z,58.37
2017-12-01T07:10:10.928Z,53.37
2017-12-01T07:12:39.207Z,57.40
2017-12-01T07:15:08.275Z,48.13
2017-12-01T07:17:36.540Z,53.00
2017-12-01T07:20:04.790Z,33.60
2017-12-01T07:22:33.342Z,43.60
2017-12-01T07:25:01.981Z,59.33
2017-12-01T07:27:30.213Z,60.47
2017-12-01T07:29:58.462Z,58.03
2017-12-01T07:32:27.782Z,58.87
2017-12-01T07:34:56.027Z,55.03
2017-12-01T07:37:25.047Z,33.53
2017-12-01T07:39:53.298Z,51.40
2017-12-01T07:42:21.561Z,51.83
2017-12-01T07:44:51.380Z,51.53
2017-12-01T07:47:19.619Z,59.53
2017-12-01T07:49:47.883Z,51.37
2017-12-01T07:55:13.273Z,55.07
2017-12-01T07:57:41.526Z,55.90
2017-12-01T08:00:10.563Z,42.47
2017-12-01T08:02:38.802Z,49.60
2017-12-01T08:08:06.210Z,52.27
2017-12-01T08:10:34.485Z,43.47
2017-12-01T08:13:02.722Z,49.23
2017-12-01T08:15:30.960Z,58.07
2017-12-01T08:18:11.054Z,45.10
2017-12-01T08:20:40.125Z,37.80
2017-12-01T08:23:08.331Z,67.60
2017-12-01T08:25:36.586Z,43.63
2017-12-01T08:28:04.842Z,46.80
2017-12-01T08:30:33.074Z,44.67
2017-12-01T08:33:02.084Z,41.33
2017-12-01T08:35:30.331Z,47.03
2017-12-01T08:37:59.338Z,40.13
2017-12-01T08:40:27.583Z,44.20
2017-12-01T08:42:55.832Z,47.93
2017-12-01T08:45:24.055Z,47.37
2017-12-01T08:47:53.038Z,42.43
2017-12-01T08:50:22.069Z,52.00
2017-12-01T08:52:50.279Z,54.17
2017-12-01T08:55:18.523Z,56.30
2017-12-01T08:57:46.766Z,64.77
2017-12-01T09:00:15.013Z,56.17
2017-12-01T09:02:43.246Z,67.53
2017-12-01T09:05:11.495Z,64.53
2017-12-01T09:07:39.739Z,58.60
2017-12-01T09:10:08.810Z,63.10
2017-12-01T09:12:37.062Z,46.70
2017-12-01T09:15:05.301Z,52.43
2017-12-01T09:17:33.578Z,48.23
2017-12-01T09:20:01.853Z,31.90
2017-12-01T09:22:30.857Z,34.77
2017-12-01T09:24:59.527Z,49.43
2017-12-01T09:27:27.795Z,49.33
2017-12-01T09:29:56.085Z,55.10
2017-12-01T09:32:24.316Z,61.83
2017-12-01T09:34:52.551Z,49.70
2017-12-01T09:37:21.003Z,50.73
2017-12-01T09:39:49.226Z,41.50
2017-12-01T09:42:17.677Z,51.70
2017-12-01T09:44:45.950Z,44.73
2017-12-01T09:47:14.177Z,39.37
2017-12-01T09:49:42.442Z,47.10
2017-12-01T09:52:10.674Z,40.10
2017-12-01T09:54:38.892Z,28.47
2017-12-01T09:57:07.359Z,47.73
2017-12-01T09:59:36.334Z,59.10
2017-12-01T10:02:04.563Z,46.37
2017-12-01T10:04:32.805Z,52.13
2017-12-01T10:07:01.033Z,57.37
2017-12-01T10:09:30.343Z,51.10
2017-12-01T10:11:58.582Z,60.20
2017-12-01T10:14:26.820Z,56.87
2017-12-01T10:16:55.060Z,46.23
2017-12-01T10:19:23.755Z,48.97
2017-12-01T10:21:52.016Z,62.03
2017-12-01T10:24:20.240Z,58.10
2017-12-01T10:26:48.491Z,61.10
2017-12-01T10:29:16.714Z,56.33
2017-12-01T10:31:45.474Z,55.60
2017-12-01T10:34:13.694Z,50.30
2017-12-01T10:36:43.068Z,58.20
2017-12-01T10:39:11.264Z,65.80
2017-12-01T10:41:40.283Z,55.30
2017-12-01T10:44:08.524Z,65.00
2017-12-01T10:46:37.574Z,57.30
2017-12-01T10:49:05.838Z,67.27
2017-12-01T10:51:34.113Z,61.77
2017-12-01T10:54:02.877Z,73.23
2017-12-01T10:56:31.892Z,90.97
2017-12-01T10:59:00.132Z,77.70
2017-12-01T11:01:28.388Z,85.27
2017-12-01T11:03:56.621Z,72.13
2017-12-01T11:06:24.894Z,64.47
2017-12-01T11:08:53.128Z,54.80
2017-12-01T11:11:22.165Z,74.80
2017-12-01T11:16:53.209Z,68.20
2017-12-01T11:19:21.453Z,66.40
2017-12-01T11:21:49.669Z,69.63
2017-12-01T11:24:18.448Z,73.30
2017-12-01T11:26:46.647Z,75.33
2017-12-01T11:29:14.910Z,70.23
2017-12-01T11:31:43.134Z,71.33
2017-12-01T11:34:11.859Z,62.67
2017-12-01T11:36:40.083Z,64.33
2017-12-01T11:39:08.411Z,64.00
2017-12-01T11:41:37.771Z,67.23
2017-12-01T11:44:06.009Z,64.40
2017-12-01T11:46:34.258Z,70.63
2017-12-01T11:49:02.498Z,68.53
2017-12-01T11:51:30.842Z,39.67
2017-12-01T11:53:59.084Z,48.43
2017-12-01T11:56:27.372Z,31.80
2017-12-01T11:58:55.578Z,58.37
2017-12-01T12:01:23.827Z,55.73
2017-12-01T12:03:52.062Z,64.63
2017-12-01T12:06:20.273Z,59.37
2017-12-01T12:08:48.548Z,47.87
2017-12-01T12:11:17.514Z,55.00
2017-12-01T12:13:45.774Z,64.47
2017-12-01T12:16:14.036Z,43.80
2017-12-01T12:18:42.315Z,34.43
2017-12-01T12:21:10.597Z,38.17
2017-12-01T12:23:38.826Z,49.33
2017-12-01T12:26:07.282Z,78.53
2017-12-01T12:28:36.286Z,43.63
2017-12-01T12:31:05.510Z,55.20
2017-12-01T12:33:33.754Z,43.23
2017-12-01T12:36:02.008Z,54.13
2017-12-01T12:38:31.003Z,35.33
2017-12-01T12:41:00.008Z,53.00
2017-12-01T12:43:28.234Z,56.40
2017-12-01T12:45:56.471Z,50.03
2017-12-01T12:48:25.623Z,42.70
2017-12-01T12:50:53.862Z,44.57
2017-12-01T12:53:22.117Z,50.27
2017-12-01T12:55:50.386Z,52.47
2017-12-01T12:58:19.371Z,49.80
2017-12-01T13:00:48.488Z,55.00
2017-12-01T13:03:16.747Z,56.60
2017-12-01T13:05:44.994Z,58.17
2017-12-01T13:08:13.238Z,50.13
2017-12-01T13:10:41.537Z,62.60
2017-12-01T13:13:09.787Z,60.57
2017-12-01T13:15:38.006Z,60.90
2017-12-01T13:18:07.010Z,62.70
2017-12-01T13:20:35.254Z,68.03
2017-12-01T13:23:04.289Z,68.37
2017-12-01T13:25:32.745Z,70.70
2017-12-01T13:28:02.051Z,61.87
2017-12-01T13:30:31.059Z,58.07
2017-12-01T13:32:59.337Z,54.57
2017-12-01T13:35:27.683Z,56.33
2017-12-01T13:37:56.057Z,49.53
2017-12-01T13:40:24.319Z,54.07
2017-12-01T13:42:52.563Z,55.30
2017-12-01T13:45:21.590Z,51.07
2017-12-01T13:47:49.878Z,49.10
2017-12-01T13:50:18.170Z,55.07
2017-12-01T13:52:46.378Z,48.33
2017-12-01T13:55:14.658Z,43.57
2017-12-01T13:57:42.922Z,44.37
2017-12-01T14:00:11.890Z,50.73
2017-12-01T14:02:40.156Z,46.80
2017-12-01T14:05:08.373Z,49.07
2017-12-01T14:07:36.918Z,51.90
2017-12-01T14:10:05.937Z,51.47
2017-12-01T14:12:34.956Z,53.87
2017-12-01T14:15:03.253Z,53.20
2017-12-01T14:17:31.548Z,57.50
2017-12-01T14:19:59.986Z,51.70
2017-12-01T14:22:28.277Z,61.67
2017-12-01T14:24:56.504Z,55.07
2017-12-01T14:27:24.753Z,46.27
2017-12-01T14:29:53.778Z,52.63
2017-12-01T14:32:22.032Z,52.97
2017-12-01T14:34:51.046Z,50.23
2017-12-01T14:37:19.270Z,56.30
2017-12-01T14:39:47.539Z,49.23
2017-12-01T14:42:15.811Z,49.60
2017-12-01T14:44:44.025Z,89.67
2017-12-01T14:47:13.026Z,62.63
2017-12-01T14:49:41.673Z,48.77
2017-12-01T14:52:10.675Z,50.13
2017-12-01T14:54:39.174Z,47.13
2017-12-01T14:57:07.426Z,48.57
2017-12-01T14:59:36.038Z,52.20
2017-12-01T15:02:05.127Z,48.33
2017-12-01T15:04:33.422Z,56.10
2017-12-01T15:07:01.746Z,55.53
2017-12-01T15:09:31.109Z,50.53
2017-12-01T15:11:59.578Z,49.60
2017-12-01T15:14:27.771Z,56.30
2017-12-01T15:16:56.002Z,61.77
2017-12-01T15:19:24.496Z,62.53
2017-12-01T15:21:53.481Z,51.07
2017-12-01T15:24:22.902Z,45.33
2017-12-01T15:26:51.432Z,53.97
2017-12-01T15:29:19.703Z,56.60
2017-12-01T15:31:49.446Z,44.33
2017-12-01T15:34:18.693Z,44.57
2017-12-01T15:36:47.133Z,44.13
2017-12-01T15:39:16.478Z,50.50
2017-12-01T15:41:44.790Z,53.53
2017-12-01T15:44:13.014Z,49.70
2017-12-01T15:46:41.260Z,44.63
2017-12-01T15:49:09.575Z,44.00
2017-12-01T15:51:37.914Z,48.00
2017-12-01T15:54:07.176Z,47.70
2017-12-01T15:56:35.423Z,49.67
2017-12-01T15:59:04.624Z,51.10
2017-12-01T16:01:33.963Z,46.90
2017-12-01T16:04:02.222Z,49.77
2017-12-01T16:06:30.487Z,57.33
2017-12-01T16:08:58.883Z,52.27
2017-12-01T16:11:27.235Z,53.07
2017-12-01T16:13:55.572Z,56.90
2017-12-01T16:16:24.369Z,55.70
2017-12-01T16:18:52.606Z,60.03
2017-12-01T16:21:20.846Z,60.97
2017-12-01T16:23:49.166Z,53.60
2017-12-01T16:26:17.432Z,64.23
2017-12-01T16:28:45.699Z,58.00
2017-12-01T16:31:13.974Z,56.00
2017-12-01T16:33:42.234Z,56.70
2017-12-01T16:36:11.302Z,73.03
2017-12-01T16:38:39.522Z,32.93
2017-12-01T16:41:08.527Z,58.47
2017-12-01T16:43:37.296Z,54.40
2017-12-01T16:46:05.583Z,60.33
2017-12-01T16:48:33.926Z,54.37
2017-12-01T16:51:02.159Z,63.90
2017-12-01T16:53:31.319Z,56.20
2017-12-01T16:55:59.563Z,57.77
2017-12-01T16:58:27.820Z,60.83
2017-12-01T17:00:56.106Z,55.83
2017-12-01T17:03:24.334Z,59.33
2017-12-01T17:05:52.608Z,58.73
2017-12-01T17:08:20.826Z,61.73
2017-12-01T17:10:49.116Z,66.80
2017-12-01T17:13:17.375Z,56.90
2017-12-01T17:15:45.627Z,55.50
2017-12-01T17:18:13.891Z,60.80
2017-12-01T17:20:42.176Z,63.57
2017-12-01T17:23:11.191Z,58.53
2017-12-01T17:25:39.462Z,56.50
2017-12-01T17:28:07.797Z,58.93
2017-12-01T17:30:37.446Z,67.13
2017-12-01T17:33:07.372Z,58.30
2017-12-01T17:35:35.635Z,57.17
2017-12-01T17:38:03.922Z,56.53
2017-12-01T17:40:32.168Z,54.87
2017-12-01T17:43:00.392Z,63.10
2017-12-01T17:45:28.649Z,60.47
2017-12-01T17:47:56.883Z,63.03
2017-12-01T17:50:25.089Z,56.77
2017-12-01T17:52:54.103Z,58.97
2017-12-01T17:55:22.326Z,61.73
2017-12-01T17:57:50.560Z,68.00
2017-12-01T18:00:18.785Z,60.53
2017-12-01T18:02:47.790Z,55.43
2017-12-01T18:05:16.779Z,53.60
2017-12-01T18:07:45.020Z,57.30
2017-12-01T18:10:13.303Z,54.03
2017-12-01T18:12:41.568Z,49.70
2017-12-01T18:15:09.798Z,64.27
2017-12-01T18:17:39.850Z,56.27
2017-12-01T18:20:08.103Z,51.47
2017-12-01T18:22:36.374Z,59.53
2017-12-01T18:25:04.649Z,62.13
2017-12-01T18:27:32.923Z,56.50
2017-12-01T18:30:01.216Z,59.27
2017-12-01T18:32:29.478Z,52.50
2017-12-01T18:34:57.737Z,54.57
2017-12-01T18:37:25.954Z,56.07
2017-12-01T18:45:50.755Z,53.90
2017-12-01T18:48:18.992Z,59.23
2017-12-01T18:50:47.245Z,57.40
2017-12-01T18:53:15.492Z,63.17
2017-12-01T18:55:43.734Z,54.83
2017-12-01T18:58:12.043Z,52.10
2017-12-01T19:00:40.270Z,56.00
2017-12-01T19:03:09.270Z,55.73
2017-12-01T19:05:38.283Z,65.07
2017-12-01T19:08:06.522Z,58.40
2017-12-01T19:10:34.833Z,60.57
2017-12-01T19:13:03.292Z,60.37
2017-12-01T19:15:31.589Z,58.37
2017-12-01T19:17:59.843Z,57.70
2017-12-01T19:20:28.221Z,65.23
2017-12-01T19:22:56.658Z,63.40
2017-12-01T19:25:26.003Z,63.10
2017-12-01T19:27:56.252Z,60.00
2017-12-01T19:30:24.651Z,64.13
2017-12-01T19:32:53.128Z,62.70
2017-12-01T19:35:21.614Z,72.60
2017-12-01T19:37:50.061Z,72.93
2017-12-01T19:40:19.121Z,67.63
2017-12-01T19:42:47.724Z,69.73
2017-12-01T19:45:16.250Z,64.33
2017-12-01T19:47:44.895Z,65.23
2017-12-01T19:50:13.283Z,76.90
2017-12-01T19:52:41.707Z,85.77
2017-12-01T19:55:10.118Z,85.97
2017-12-01T19:57:38.656Z,86.40
2017-12-01T20:00:07.820Z,78.17
2017-12-01T20:02:37.035Z,71.40
2017-12-01T20:05:05.291Z,66.30
2017-12-01T20:07:33.947Z,72.53
2017-12-01T20:10:03.996Z,73.37
2017-12-01T20:12:34.311Z,70.00
2017-12-01T20:15:02.768Z,64.30
2017-12-01T20:17:31.259Z,66.70
2017-12-01T20:20:00.651Z,60.97
2017-12-01T20:25:26.347Z,67.20
2017-12-01T20:27:54.687Z,70.97
2017-12-01T20:30:23.259Z,68.50
2017-12-01T20:32:51.705Z,85.07
2017-12-01T20:35:20.124Z,72.40
2017-12-01T20:37:48.590Z,72.27
2017-12-01T20:40:17.412Z,71.37
2017-12-01T20:42:45.886Z,66.50
2017-12-01T20:45:14.136Z,71.87
2017-12-01T20:47:42.442Z,65.90
2017-12-01T20:50:10.794Z,60.67
2017-12-01T20:52:40.052Z,67.93
2017-12-01T20:55:08.572Z,61.73
2017-12-01T20:57:37.001Z,65.77
2017-12-01T21:00:05.451Z,65.40
2017-12-01T21:02:33.849Z,71.60
2017-12-01T21:05:02.415Z,72.07
2017-12-01T21:07:31.218Z,71.97
2017-12-01T21:09:59.869Z,65.20
2017-12-01T21:12:28.166Z,66.07
2017-12-01T21:14:56.491Z,75.03
2017-12-01T21:17:24.768Z,68.50
2017-12-01T21:19:53.113Z,63.10
2017-12-01T21:22:21.346Z,73.17
2017-12-01T21:24:50.384Z,68.30
2017-12-01T21:27:18.606Z,73.23
2017-12-01T21:29:47.606Z,71.00
2017-12-01T21:32:15.875Z,66.30
2017-12-01T21:34:44.149Z,71.33
2017-12-01T21:37:13.147Z,72.47
2017-12-01T21:39:41.415Z,64.17
2017-12-01T21:42:10.436Z,64.77
2017-12-01T21:44:39.542Z,62.67
2017-12-01T21:47:07.818Z,66.00
2017-12-01T21:49:36.062Z,75.03
2017-12-01T21:52:04.315Z,72.77
2017-12-01T21:54:33.346Z,74.47
2017-12-01T21:57:02.023Z,77.07
2017-12-01T21:59:30.343Z,68.93
2017-12-01T22:01:58.578Z,80.57
2017-12-01T22:04:27.562Z,70.63
2017-12-01T22:06:56.599Z,65.77
2017-12-01T22:09:24.877Z,59.47
2017-12-01T22:11:53.185Z,69.90
2017-12-01T22:14:21.416Z,73.73
2017-12-01T22:16:49.665Z,60.87
2017-12-01T22:19:17.974Z,81.03
2017-12-01T22:21:46.238Z,78.40
2017-12-01T22:24:14.678Z,66.80
2017-12-01T22:26:42.878Z,60.60
2017-12-01T22:29:12.263Z,63.50
2017-12-01T22:31:42.483Z,63.27
2017-12-01T22:34:10.724Z,74.73
2017-12-01T22:36:38.958Z,73.03
2017-12-01T22:39:07.269Z,65.00
2017-12-01T22:41:35.505Z,61.93
2017-12-01T22:44:03.734Z,55.67
2017-12-01T22:46:32.867Z,69.10
2017-12-01T22:49:01.139Z,66.73
2017-12-01T22:51:29.505Z,65.17
2017-12-01T22:53:57.716Z,60.57
2017-12-01T22:56:26.099Z,60.70
2017-12-01T22:58:54.351Z,57.70
2017-12-01T23:01:22.597Z,62.23
2017-12-01T23:03:50.893Z,54.70
2017-12-01T23:06:19.883Z,55.97
2017-12-01T23:08:48.903Z,55.20
2017-12-01T23:11:17.165Z,56.63
2017-12-01T23:13:45.515Z,60.30
2017-12-01T23:16:14.526Z,63.73
2017-12-01T23:18:42.810Z,56.60
2017-12-01T23:21:11.091Z,60.10
2017-12-01T23:23:39.346Z,62.87
2017-12-01T23:26:09.101Z,71.63
2017-12-01T23:28:37.357Z,74.87
2017-12-01T23:31:05.640Z,69.67
2017-12-01T23:33:33.862Z,65.53
2017-12-01T23:36:02.194Z,60.33
2017-12-01T23:38:30.453Z,58.10
2017-12-01T23:40:58.722Z,63.63
2017-12-01T23:43:26.973Z,62.17
2017-12-01T23:45:55.982Z,62.27
2017-12-01T23:48:24.292Z,61.53
2017-12-01T23:50:52.546Z,59.57
2017-12-01T23:53:20.777Z,66.67
2017-12-01T23:55:49.779Z,58.33
2017-12-01T23:58:18.791Z,54.50
